PWSweather.com
Personal Weather Stations
Station Observations

ChardChardGB

Lat: 50.877408, Lon: -2.94964741

Elevation: 341

Station Type: WS3083

http://www.merriott-astro.co.uk/weather/index.htm

High Low Average
Temperature 71.1°F21.7°F 56.3°F13.5°F 62.3°F16.8°F
Dew Point 57.1°F13.9°F 48.1°F8.9°F 51.7°F10.9°F
Winds 8.7 mph WSW14.0 mph WSW Calm Calm 4.1 mph 6.6 mph
Wind Gusts 12.1 mph19.5 mph -- 6.9 mph11.1 mph
Humidity 87% 51% 69%
Pressure 29.46 in997.60 in 29.40 in995.60 in -
Precipitation 0.24 in6.10 in - -
Hour Temp Dew Point Humidity Winds Wind Gusts Pressure Precip Precip Rate Daily Precip Total
12:00 AM 57.6°F14.2°C 50.8°F10.4°C 78% 1.0 mph ESE1.6 kmh ESE 3.8 mph6.1 kmh 29.45 in997.3 mb 0.00 in0.0 mm 0.00 in0.0 mm 0.00 in0.0 mm
12:10 AM 57.4°F14.1°C 50.9°F10.5°C 79% 1.3 mph S2.1 kmh S 3.8 mph6.1 kmh 29.45 in997.3 mb 0.00 in0.0 mm 0.00 in0.0 mm 0.00 in0.0 mm
12:20 AM 57.4°F14.1°C 50.9°F10.5°C 79% 0.7 mph WSW1.1 kmh WSW 5.4 mph8.7 kmh 29.44 in997.0 mb 0.00 in0.0 mm 0.00 in0.0 mm 0.00 in0.0 mm
12:30 AM 57.4°F14.1°C 50.9°F10.5°C 79% 1.7 mph SW2.7 kmh SW 3.8 mph6.1 kmh 29.45 in997.3 mb 0.00 in0.0 mm 0.00 in0.0 mm 0.00 in0.0 mm
12:40 AM 57.6°F14.2°C 51.1°F10.6°C 79% 0.7 mph S1.1 kmh S 3.1 mph5.0 kmh 29.45 in997.3 mb 0.00 in0.0 mm 0.00 in0.0 mm 0.00 in0.0 mm
12:50 AM 57.6°F14.2°C 51.1°F10.6°C 79% 1.7 mph SE2.7 kmh SE 7.6 mph12.2 kmh 29.45 in997.3 mb 0.00 in0.0 mm 0.00 in0.0 mm 0.00 in0.0 mm
01:00 AM 57.4°F14.1°C 50.9°F10.5°C 79% Calm Calm -- 29.45 in997.3 mb 0.00 in0.0 mm 0.00 in0.0 mm 0.00 in0.0 mm
01:10 AM 57.2°F14.0°C 51.1°F10.6°C 80% Calm Calm -- 29.45 in997.3 mb 0.00 in0.0 mm 0.00 in0.0 mm 0.00 in0.0 mm
01:20 AM 57.2°F14.0°C 51.1°F10.6°C 80% 1.1 mph SSE1.8 kmh SSE 5.4 mph8.7 kmh 29.45 in997.3 mb 0.00 in0.0 mm 0.00 in0.0 mm 0.00 in0.0 mm
01:30 AM 57.2°F14.0°C 51.4°F10.8°C 81% 1.9 mph SSW3.1 kmh SSW 4.5 mph7.2 kmh 29.44 in997.0 mb 0.00 in0.0 mm 0.00 in0.0 mm 0.00 in0.0 mm
01:40 AM 57.0°F13.9°C 51.3°F10.7°C 81% Calm Calm -- 29.45 in997.3 mb 0.00 in0.0 mm 0.00 in0.0 mm 0.00 in0.0 mm
01:50 AM 57.0°F13.9°C 51.3°F10.7°C 81% Calm Calm -- 29.45 in997.3 mb 0.00 in0.0 mm 0.00 in0.0 mm 0.00 in0.0 mm
02:00 AM 57.4°F14.1°C 51.6°F10.9°C 81% Calm Calm -- 29.45 in997.3 mb 0.00 in0.0 mm 0.00 in0.0 mm 0.00 in0.0 mm
02:10 AM 57.2°F14.0°C 51.4°F10.8°C 81% 0.3 mph S0.5 kmh S 3.1 mph5.0 kmh 29.44 in997.0 mb 0.00 in0.0 mm 0.00 in0.0 mm 0.00 in0.0 mm
02:20 AM 56.8°F13.8°C 51.1°F10.6°C 81% 0.6 mph SSE1.0 kmh SSE 3.8 mph6.1 kmh 29.45 in997.3 mb 0.00 in0.0 mm 0.00 in0.0 mm 0.00 in0.0 mm
02:30 AM 56.8°F13.8°C 51.4°F10.8°C 82% 3.1 mph SSE5.0 kmh SSE 5.4 mph8.7 kmh 29.45 in997.3 mb 0.00 in0.0 mm 0.00 in0.0 mm 0.00 in0.0 mm
02:40 AM 56.8°F13.8°C 51.4°F10.8°C 82% 0.6 mph SSE1.0 kmh SSE 4.5 mph7.2 kmh 29.44 in997.0 mb 0.00 in0.0 mm 0.00 in0.0 mm 0.00 in0.0 mm
02:50 AM 56.8°F13.8°C 51.4°F10.8°C 82% Calm Calm -- 29.44 in997.0 mb 0.00 in0.0 mm 0.00 in0.0 mm 0.00 in0.0 mm
03:00 AM 56.7°F13.7°C 51.2°F10.7°C 82% Calm Calm -- 29.44 in997.0 mb 0.00 in0.0 mm 0.00 in0.0 mm 0.00 in0.0 mm
03:10 AM 56.5°F13.6°C 51.4°F10.8°C 83% Calm Calm -- 29.44 in997.0 mb 0.00 in0.0 mm 0.00 in0.0 mm 0.00 in0.0 mm
03:20 AM 56.5°F13.6°C 51.4°F10.8°C 83% 0.6 mph E1.0 kmh E 2.2 mph3.5 kmh 29.44 in997.0 mb 0.00 in0.0 mm 0.00 in0.0 mm 0.00 in0.0 mm
03:30 AM 56.5°F13.6°C 51.4°F10.8°C 83% 0.3 mph SSE0.5 kmh SSE 2.2 mph3.5 kmh 29.44 in997.0 mb 0.00 in0.0 mm 0.00 in0.0 mm 0.00 in0.0 mm
03:40 AM 56.5°F13.6°C 51.4°F10.8°C 83% 0.1 mph N0.2 kmh N 0.7 mph1.1 kmh 29.45 in997.3 mb 0.00 in0.0 mm 0.00 in0.0 mm 0.00 in0.0 mm
03:50 AM 56.3°F13.5°C 51.2°F10.7°C 83% Calm Calm -- 29.44 in997.0 mb 0.00 in0.0 mm 0.00 in0.0 mm 0.00 in0.0 mm
04:00 AM 56.5°F13.6°C 51.7°F10.9°C 84% 1.7 mph SE2.7 kmh SE 3.8 mph6.1 kmh 29.44 in997.0 mb 0.00 in0.0 mm 0.00 in0.0 mm 0.00 in0.0 mm
04:10 AM 56.5°F13.6°C 51.7°F10.9°C 84% Calm Calm -- 29.43 in996.6 mb 0.00 in0.0 mm 0.00 in0.0 mm 0.00 in0.0 mm
04:20 AM 56.3°F13.5°C 51.5°F10.8°C 84% Calm Calm -- 29.44 in997.0 mb 0.00 in0.0 mm 0.00 in0.0 mm 0.00 in0.0 mm
04:30 AM 56.5°F13.6°C 51.7°F10.9°C 84% 0.4 mph S0.6 kmh S 5.4 mph8.7 kmh 29.44 in997.0 mb 0.00 in0.0 mm 0.00 in0.0 mm 0.00 in0.0 mm
04:40 AM 56.5°F13.6°C 51.7°F10.9°C 84% 0.1 mph E0.2 kmh E 2.2 mph3.5 kmh 29.44 in997.0 mb 0.00 in0.0 mm 0.00 in0.0 mm 0.00 in0.0 mm
04:50 AM 56.7°F13.7°C 51.9°F11.1°C 84% Calm Calm -- 29.43 in996.6 mb 0.00 in0.0 mm 0.00 in0.0 mm 0.00 in0.0 mm
05:00 AM 56.7°F13.7°C 51.9°F11.1°C 84% 1.7 mph S2.7 kmh S 5.4 mph8.7 kmh 29.44 in997.0 mb 0.00 in0.0 mm 0.00 in0.0 mm 0.00 in0.0 mm
05:10 AM 57.2°F14.0°C 52.1°F11.2°C 83% 4.5 mph S7.2 kmh S 6.0 mph9.7 kmh 29.44 in997.0 mb 0.00 in0.0 mm 0.00 in0.0 mm 0.00 in0.0 mm
05:20 AM 57.0°F13.9°C 51.6°F10.9°C 82% 6.3 mph SSW10.1 kmh SSW 9.8 mph15.8 kmh 29.43 in996.6 mb 0.00 in0.0 mm 0.00 in0.0 mm 0.00 in0.0 mm
05:30 AM 56.8°F13.8°C 51.7°F10.9°C 83% 4.4 mph S7.1 kmh S 7.6 mph12.2 kmh 29.44 in997.0 mb 0.00 in0.0 mm 0.00 in0.0 mm 0.00 in0.0 mm
05:40 AM 56.8°F13.8°C 52.1°F11.2°C 84% 3.6 mph S5.8 kmh S 6.0 mph9.7 kmh 29.44 in997.0 mb 0.00 in0.0 mm 0.00 in0.0 mm 0.00 in0.0 mm
05:50 AM 56.8°F13.8°C 52.4°F11.3°C 85% 2.0 mph SSE3.2 kmh SSE 5.4 mph8.7 kmh 29.44 in997.0 mb 0.00 in0.0 mm 0.00 in0.0 mm 0.00 in0.0 mm
06:00 AM 56.8°F13.8°C 52.7°F11.5°C 86% 0.7 mph SE1.1 kmh SE 1.6 mph2.6 kmh 29.45 in997.3 mb 0.01 in0.3 mm 0.01 in0.3 mm 0.01 in0.3 mm
06:10 AM 56.8°F13.8°C 53.0°F11.7°C 87% 1.5 mph SSW2.4 kmh SSW 3.1 mph5.0 kmh 29.44 in997.0 mb 0.01 in0.3 mm 0.00 in0.0 mm 0.01 in0.3 mm
06:20 AM 57.2°F14.0°C 53.4°F11.9°C 87% 1.0 mph SSE1.6 kmh SSE 3.8 mph6.1 kmh 29.44 in997.0 mb 0.01 in0.3 mm 0.00 in0.0 mm 0.01 in0.3 mm
06:30 AM 57.6°F14.2°C 53.7°F12.1°C 87% 0.9 mph S1.4 kmh S 2.2 mph3.5 kmh 29.44 in997.0 mb 0.01 in0.3 mm 0.00 in0.0 mm 0.01 in0.3 mm
06:40 AM 58.1°F14.5°C 54.3°F12.4°C 87% 3.3 mph S5.3 kmh S 4.5 mph7.2 kmh 29.43 in996.6 mb 0.01 in0.3 mm 0.00 in0.0 mm 0.01 in0.3 mm
06:50 AM 58.5°F14.7°C 54.0°F12.2°C 85% 4.1 mph S6.6 kmh S 6.0 mph9.7 kmh 29.44 in997.0 mb 0.01 in0.3 mm 0.00 in0.0 mm 0.01 in0.3 mm
07:00 AM 58.8°F14.9°C 53.7°F12.1°C 83% 2.8 mph SSE4.5 kmh SSE 4.5 mph7.2 kmh 29.43 in996.6 mb 0.00 in0.0 mm 0.00 in0.0 mm 0.01 in0.3 mm
07:10 AM 59.4°F15.2°C 53.9°F12.2°C 82% 2.7 mph SSW4.3 kmh SSW 3.8 mph6.1 kmh 29.43 in996.6 mb 0.00 in0.0 mm 0.00 in0.0 mm 0.01 in0.3 mm
07:20 AM 59.7°F15.4°C 53.9°F12.2°C 81% 3.6 mph SW5.8 kmh SW 6.0 mph9.7 kmh 29.44 in997.0 mb 0.00 in0.0 mm 0.00 in0.0 mm 0.01 in0.3 mm
07:30 AM 60.4°F15.8°C 54.3°F12.4°C 80% 3.5 mph SSW5.6 kmh SSW 6.0 mph9.7 kmh 29.45 in997.3 mb 0.00 in0.0 mm 0.00 in0.0 mm 0.01 in0.3 mm
07:40 AM 61.3°F16.3°C 54.4°F12.4°C 78% 3.1 mph S5.0 kmh S 6.9 mph11.1 kmh 29.44 in997.0 mb 0.00 in0.0 mm 0.00 in0.0 mm 0.01 in0.3 mm
07:50 AM 61.5°F16.4°C 53.5°F11.9°C 75% 2.8 mph SSW4.5 kmh SSW 5.4 mph8.7 kmh 29.43 in996.6 mb 0.00 in0.0 mm 0.00 in0.0 mm 0.01 in0.3 mm
08:00 AM 62.4°F16.9°C 53.7°F12.1°C 73% 4.9 mph SW7.9 kmh SW 8.3 mph13.4 kmh 29.43 in996.6 mb 0.00 in0.0 mm 0.00 in0.0 mm 0.01 in0.3 mm
08:10 AM 62.6°F17.0°C 53.1°F11.7°C 71% 4.8 mph SSW7.7 kmh SSW 7.6 mph12.2 kmh 29.43 in996.6 mb 0.00 in0.0 mm 0.00 in0.0 mm 0.01 in0.3 mm
08:20 AM 63.0°F17.2°C 53.0°F11.7°C 70% 6.5 mph SSW10.5 kmh SSW 8.3 mph13.4 kmh 29.43 in996.6 mb 0.00 in0.0 mm 0.00 in0.0 mm 0.01 in0.3 mm
08:30 AM 64.2°F17.9°C 51.8°F11.0°C 64% 5.3 mph W8.5 kmh W 9.8 mph15.8 kmh 29.42 in996.3 mb 0.00 in0.0 mm 0.00 in0.0 mm 0.01 in0.3 mm
08:40 AM 65.1°F18.4°C 51.8°F11.0°C 62% 4.1 mph SSW6.6 kmh SSW 7.6 mph12.2 kmh 29.43 in996.6 mb 0.00 in0.0 mm 0.00 in0.0 mm 0.01 in0.3 mm
08:50 AM 65.7°F18.7°C 51.9°F11.1°C 61% 4.3 mph S6.9 kmh S 8.3 mph13.4 kmh 29.43 in996.6 mb 0.00 in0.0 mm 0.00 in0.0 mm 0.01 in0.3 mm
09:00 AM 65.7°F18.7°C 52.3°F11.3°C 62% 5.0 mph S8.0 kmh S 8.3 mph13.4 kmh 29.42 in996.3 mb 0.00 in0.0 mm 0.00 in0.0 mm 0.01 in0.3 mm
09:10 AM 65.8°F18.8°C 51.6°F10.9°C 60% 5.3 mph SW8.5 kmh SW 10.7 mph17.2 kmh 29.42 in996.3 mb 0.00 in0.0 mm 0.00 in0.0 mm 0.01 in0.3 mm
09:20 AM 66.2°F19.0°C 51.9°F11.1°C 60% 6.4 mph WSW10.3 kmh WSW 9.8 mph15.8 kmh 29.42 in996.3 mb 0.00 in0.0 mm 0.00 in0.0 mm 0.01 in0.3 mm
09:30 AM 67.5°F19.7°C 52.7°F11.5°C 59% 7.2 mph W11.6 kmh W 10.7 mph17.2 kmh 29.43 in996.6 mb 0.00 in0.0 mm 0.00 in0.0 mm 0.01 in0.3 mm
09:40 AM 66.7°F19.3°C 51.0°F10.6°C 57% 6.6 mph SW10.6 kmh SW 9.2 mph14.8 kmh 29.42 in996.3 mb 0.00 in0.0 mm 0.00 in0.0 mm 0.01 in0.3 mm
09:50 AM 66.7°F19.3°C 51.5°F10.8°C 58% 6.2 mph SW10.0 kmh SW 9.2 mph14.8 kmh 29.42 in996.3 mb 0.00 in0.0 mm 0.00 in0.0 mm 0.01 in0.3 mm
10:00 AM 66.9°F19.4°C 51.2°F10.7°C 57% 5.2 mph SSW8.4 kmh SSW 10.7 mph17.2 kmh 29.41 in995.9 mb 0.00 in0.0 mm 0.00 in0.0 mm 0.01 in0.3 mm
10:10 AM 64.9°F18.3°C 50.3°F10.2°C 59% 7.0 mph W11.3 kmh W 10.7 mph17.2 kmh 29.41 in995.9 mb 0.00 in0.0 mm 0.00 in0.0 mm 0.01 in0.3 mm
10:20 AM 65.5°F18.6°C 51.7°F10.9°C 61% 4.5 mph WSW7.2 kmh WSW 8.3 mph13.4 kmh 29.42 in996.3 mb 0.00 in0.0 mm 0.00 in0.0 mm 0.01 in0.3 mm
10:30 AM 65.1°F18.4°C 50.9°F10.5°C 60% 5.4 mph SW8.7 kmh SW 9.2 mph14.8 kmh 29.43 in996.6 mb 0.00 in0.0 mm 0.00 in0.0 mm 0.01 in0.3 mm
10:40 AM 64.8°F18.2°C 52.3°F11.3°C 64% 4.6 mph ESE7.4 kmh ESE 7.6 mph12.2 kmh 29.42 in996.3 mb 0.00 in0.0 mm 0.00 in0.0 mm 0.01 in0.3 mm
10:50 AM 66.0°F18.9°C 53.5°F11.9°C 64% 3.9 mph SSW6.3 kmh SSW 7.6 mph12.2 kmh 29.42 in996.3 mb 0.00 in0.0 mm 0.00 in0.0 mm 0.01 in0.3 mm
11:00 AM 66.9°F19.4°C 52.6°F11.4°C 60% 4.5 mph SSE7.2 kmh SSE 6.9 mph11.1 kmh 29.43 in996.6 mb 0.00 in0.0 mm 0.00 in0.0 mm 0.01 in0.3 mm
11:10 AM 68.0°F20.0°C 54.1°F12.3°C 61% 4.9 mph SSW7.9 kmh SSW 7.6 mph12.2 kmh 29.42 in996.3 mb 0.00 in0.0 mm 0.00 in0.0 mm 0.01 in0.3 mm
11:20 AM 69.6°F20.9°C 52.3°F11.3°C 54% 3.8 mph WSW6.1 kmh WSW 9.2 mph14.8 kmh 29.41 in995.9 mb 0.00 in0.0 mm 0.00 in0.0 mm 0.01 in0.3 mm
11:30 AM 67.8°F19.9°C 50.1°F10.1°C 53% 5.9 mph WNW9.5 kmh WNW 11.4 mph18.3 kmh 29.41 in995.9 mb 0.00 in0.0 mm 0.00 in0.0 mm 0.01 in0.3 mm
11:40 AM 66.2°F19.0°C 51.9°F11.1°C 60% 3.6 mph SW5.8 kmh SW 7.6 mph12.2 kmh 29.41 in995.9 mb 0.00 in0.0 mm 0.00 in0.0 mm 0.01 in0.3 mm
11:50 AM 63.7°F17.6°C 52.1°F11.2°C 66% 4.3 mph W6.9 kmh W 9.8 mph15.8 kmh 29.41 in995.9 mb 0.02 in0.5 mm 0.12 in3.0 mm 0.04 in1.0 mm
12:00 PM 64.9°F18.3°C 55.3°F12.9°C 71% 3.4 mph SW5.5 kmh SW 4.5 mph7.2 kmh 29.41 in995.9 mb 0.02 in0.5 mm 0.00 in0.0 mm 0.04 in1.0 mm
12:10 PM 65.5°F18.6°C 54.7°F12.6°C 68% 2.7 mph SW4.3 kmh SW 6.0 mph9.7 kmh 29.41 in995.9 mb 0.02 in0.5 mm 0.00 in0.0 mm 0.04 in1.0 mm
12:20 PM 68.4°F20.2°C 55.7°F13.2°C 64% 4.4 mph SW7.1 kmh SW 8.3 mph13.4 kmh 29.42 in996.3 mb 0.02 in0.5 mm 0.00 in0.0 mm 0.04 in1.0 mm
12:30 PM 67.1°F19.5°C 53.7°F12.1°C 62% 7.5 mph WSW12.1 kmh WSW 11.4 mph18.3 kmh 29.41 in995.9 mb 0.02 in0.5 mm 0.00 in0.0 mm 0.04 in1.0 mm
12:40 PM 67.8°F19.9°C 53.9°F12.2°C 61% 3.9 mph WSW6.3 kmh WSW 7.6 mph12.2 kmh 29.41 in995.9 mb 0.02 in0.5 mm 0.00 in0.0 mm 0.04 in1.0 mm
12:50 PM 68.7°F20.4°C 54.3°F12.4°C 60% 5.9 mph SW9.5 kmh SW 9.2 mph14.8 kmh 29.41 in995.9 mb 0.00 in0.0 mm 0.00 in0.0 mm 0.04 in1.0 mm
01:00 PM 70.3°F21.3°C 54.4°F12.4°C 57% 6.3 mph W10.1 kmh W 9.2 mph14.8 kmh 29.41 in995.9 mb 0.00 in0.0 mm 0.00 in0.0 mm 0.04 in1.0 mm
01:10 PM 69.4°F20.8°C 51.1°F10.6°C 52% 8.3 mph W13.4 kmh W 11.4 mph18.3 kmh 29.41 in995.9 mb 0.00 in0.0 mm 0.00 in0.0 mm 0.04 in1.0 mm
01:20 PM 67.1°F19.5°C 50.9°F10.5°C 56% 8.3 mph WSW13.4 kmh WSW 9.8 mph15.8 kmh 29.41 in995.9 mb 0.00 in0.0 mm 0.00 in0.0 mm 0.04 in1.0 mm
01:30 PM 68.2°F20.1°C 51.9°F11.1°C 56% 7.1 mph SW11.4 kmh SW 9.8 mph15.8 kmh 29.40 in995.6 mb 0.00 in0.0 mm 0.00 in0.0 mm 0.04 in1.0 mm
01:40 PM 68.7°F20.4°C 50.4°F10.2°C 52% 6.0 mph S9.7 kmh S 8.3 mph13.4 kmh 29.41 in995.9 mb 0.00 in0.0 mm 0.00 in0.0 mm 0.04 in1.0 mm
01:50 PM 67.8°F19.9°C 50.6°F10.3°C 54% 5.4 mph SW8.7 kmh SW 8.3 mph13.4 kmh 29.42 in996.3 mb 0.00 in0.0 mm 0.00 in0.0 mm 0.04 in1.0 mm
02:00 PM 66.2°F19.0°C 51.5°F10.8°C 59% 7.3 mph SW11.7 kmh SW 12.1 mph19.5 kmh 29.43 in996.6 mb 0.00 in0.0 mm 0.00 in0.0 mm 0.04 in1.0 mm
02:10 PM 66.6°F19.2°C 50.9°F10.5°C 57% 6.7 mph W10.8 kmh W 9.8 mph15.8 kmh 29.43 in996.6 mb 0.00 in0.0 mm 0.00 in0.0 mm 0.04 in1.0 mm
02:20 PM 67.1°F19.5°C 51.4°F10.8°C 57% 8.7 mph WSW14.0 kmh WSW 12.1 mph19.5 kmh 29.42 in996.3 mb 0.00 in0.0 mm 0.00 in0.0 mm 0.04 in1.0 mm
02:30 PM 68.9°F20.5°C 53.5°F11.9°C 58% 6.3 mph NW10.1 kmh NW 8.3 mph13.4 kmh 29.42 in996.3 mb 0.00 in0.0 mm 0.00 in0.0 mm 0.04 in1.0 mm
02:40 PM 70.9°F21.6°C 51.9°F11.1°C 51% 6.4 mph NW10.3 kmh NW 12.1 mph19.5 kmh 29.42 in996.3 mb 0.00 in0.0 mm 0.00 in0.0 mm 0.04 in1.0 mm
02:50 PM 70.7°F21.5°C 51.7°F10.9°C 51% 7.4 mph NW11.9 kmh NW 11.4 mph18.3 kmh 29.41 in995.9 mb 0.00 in0.0 mm 0.00 in0.0 mm 0.04 in1.0 mm
03:00 PM 71.1°F21.7°C 52.6°F11.4°C 52% 7.0 mph WNW11.3 kmh WNW 10.7 mph17.2 kmh 29.41 in995.9 mb 0.00 in0.0 mm 0.00 in0.0 mm 0.04 in1.0 mm
03:10 PM 70.5°F21.4°C 51.5°F10.8°C 51% 7.2 mph SSE11.6 kmh SSE 12.1 mph19.5 kmh 29.41 in995.9 mb 0.00 in0.0 mm 0.00 in0.0 mm 0.04 in1.0 mm
03:20 PM 69.4°F20.8°C 51.1°F10.6°C 52% 7.6 mph WSW12.2 kmh WSW 10.7 mph17.2 kmh 29.41 in995.9 mb 0.00 in0.0 mm 0.00 in0.0 mm 0.04 in1.0 mm
03:30 PM 67.5°F19.7°C 53.6°F12.0°C 61% 6.1 mph SW9.8 kmh SW 9.8 mph15.8 kmh 29.42 in996.3 mb 0.00 in0.0 mm 0.00 in0.0 mm 0.04 in1.0 mm
03:40 PM 66.6°F19.2°C 53.6°F12.0°C 63% 5.2 mph SSW8.4 kmh SSW 7.6 mph12.2 kmh 29.42 in996.3 mb 0.00 in0.0 mm 0.00 in0.0 mm 0.04 in1.0 mm
03:50 PM 68.0°F20.0°C 54.1°F12.3°C 61% 4.2 mph SSW6.8 kmh SSW 6.0 mph9.7 kmh 29.42 in996.3 mb 0.00 in0.0 mm 0.00 in0.0 mm 0.04 in1.0 mm
04:00 PM 70.5°F21.4°C 54.1°F12.3°C 56% 5.2 mph SSE8.4 kmh SSE 7.6 mph12.2 kmh 29.41 in995.9 mb 0.00 in0.0 mm 0.00 in0.0 mm 0.04 in1.0 mm
04:10 PM 68.2°F20.1°C 53.3°F11.8°C 59% 6.4 mph SW10.3 kmh SW 11.4 mph18.3 kmh 29.41 in995.9 mb 0.00 in0.0 mm 0.00 in0.0 mm 0.04 in1.0 mm
04:20 PM 68.5°F20.3°C 55.5°F13.1°C 63% 5.9 mph S9.5 kmh S 8.3 mph13.4 kmh 29.41 in995.9 mb 0.00 in0.0 mm 0.00 in0.0 mm 0.04 in1.0 mm
04:30 PM 67.6°F19.8°C 54.6°F12.6°C 63% 6.9 mph SSW11.1 kmh SSW 11.4 mph18.3 kmh 29.41 in995.9 mb 0.00 in0.0 mm 0.00 in0.0 mm 0.04 in1.0 mm
04:40 PM 66.0°F18.9°C 54.4°F12.4°C 66% 6.4 mph S10.3 kmh S 8.3 mph13.4 kmh 29.41 in995.9 mb 0.00 in0.0 mm 0.00 in0.0 mm 0.04 in1.0 mm
04:50 PM 68.0°F20.0°C 57.1°F13.9°C 68% 5.4 mph WSW8.7 kmh WSW 8.3 mph13.4 kmh 29.41 in995.9 mb 0.00 in0.0 mm 0.00 in0.0 mm 0.04 in1.0 mm
05:00 PM 66.9°F19.4°C 52.1°F11.2°C 59% 7.6 mph WSW12.2 kmh WSW 9.2 mph14.8 kmh 29.41 in995.9 mb 0.00 in0.0 mm 0.00 in0.0 mm 0.04 in1.0 mm
05:10 PM 66.0°F18.9°C 51.3°F10.7°C 59% 8.1 mph WSW13.0 kmh WSW 10.7 mph17.2 kmh 29.41 in995.9 mb 0.01 in0.3 mm 0.06 in1.5 mm 0.05 in1.3 mm
05:20 PM 65.8°F18.8°C 51.6°F10.9°C 60% 7.2 mph W11.6 kmh W 11.4 mph18.3 kmh 29.41 in995.9 mb 0.01 in0.3 mm 0.00 in0.0 mm 0.05 in1.3 mm
05:30 PM 65.8°F18.8°C 52.0°F11.1°C 61% 7.4 mph WNW11.9 kmh WNW 12.1 mph19.5 kmh 29.41 in995.9 mb 0.01 in0.3 mm 0.00 in0.0 mm 0.05 in1.3 mm
05:40 PM 65.8°F18.8°C 52.0°F11.1°C 61% 5.9 mph SSW9.5 kmh SSW 7.6 mph12.2 kmh 29.42 in996.3 mb 0.01 in0.3 mm 0.00 in0.0 mm 0.05 in1.3 mm
05:50 PM 65.5°F18.6°C 51.7°F10.9°C 61% 6.1 mph WNW9.8 kmh WNW 8.3 mph13.4 kmh 29.42 in996.3 mb 0.01 in0.3 mm 0.00 in0.0 mm 0.05 in1.3 mm
06:00 PM 65.3°F18.5°C 52.0°F11.1°C 62% 5.3 mph WSW8.5 kmh WSW 7.6 mph12.2 kmh 29.42 in996.3 mb 0.01 in0.3 mm 0.00 in0.0 mm 0.05 in1.3 mm
06:10 PM 65.8°F18.8°C 52.0°F11.1°C 61% 4.3 mph SW6.9 kmh SW 6.9 mph11.1 kmh 29.41 in995.9 mb 0.00 in0.0 mm 0.00 in0.0 mm 0.05 in1.3 mm
06:20 PM 66.2°F19.0°C 52.4°F11.3°C 61% 5.4 mph S8.7 kmh S 7.6 mph12.2 kmh 29.42 in996.3 mb 0.00 in0.0 mm 0.00 in0.0 mm 0.05 in1.3 mm
06:30 PM 64.8°F18.2°C 51.9°F11.1°C 63% 4.9 mph SSW7.9 kmh SSW 7.6 mph12.2 kmh 29.42 in996.3 mb 0.00 in0.0 mm 0.00 in0.0 mm 0.05 in1.3 mm
06:40 PM 64.2°F17.9°C 51.4°F10.8°C 63% 6.2 mph SW10.0 kmh SW 8.3 mph13.4 kmh 29.43 in996.6 mb 0.00 in0.0 mm 0.00 in0.0 mm 0.05 in1.3 mm
06:50 PM 64.6°F18.1°C 51.3°F10.7°C 62% 7.0 mph WSW11.3 kmh WSW 9.8 mph15.8 kmh 29.43 in996.6 mb 0.00 in0.0 mm 0.00 in0.0 mm 0.05 in1.3 mm
07:00 PM 64.4°F18.0°C 50.7°F10.4°C 61% 5.3 mph NNW8.5 kmh NNW 8.3 mph13.4 kmh 29.43 in996.6 mb 0.00 in0.0 mm 0.00 in0.0 mm 0.05 in1.3 mm
07:10 PM 64.6°F18.1°C 51.3°F10.7°C 62% 5.3 mph W8.5 kmh W 6.9 mph11.1 kmh 29.43 in996.6 mb 0.00 in0.0 mm 0.00 in0.0 mm 0.05 in1.3 mm
07:20 PM 63.0°F17.2°C 51.8°F11.0°C 67% 4.8 mph W7.7 kmh W 8.3 mph13.4 kmh 29.43 in996.6 mb 0.00 in0.0 mm 0.00 in0.0 mm 0.05 in1.3 mm
07:30 PM 62.2°F16.8°C 52.0°F11.1°C 69% 6.4 mph WSW10.3 kmh WSW 9.8 mph15.8 kmh 29.43 in996.6 mb 0.00 in0.0 mm 0.00 in0.0 mm 0.05 in1.3 mm
07:40 PM 61.7°F16.5°C 51.0°F10.6°C 68% 7.0 mph SW11.3 kmh SW 12.1 mph19.5 kmh 29.43 in996.6 mb 0.00 in0.0 mm 0.00 in0.0 mm 0.05 in1.3 mm
07:50 PM 61.5°F16.4°C 50.5°F10.3°C 67% 5.1 mph SW8.2 kmh SW 7.6 mph12.2 kmh 29.44 in997.0 mb 0.00 in0.0 mm 0.00 in0.0 mm 0.05 in1.3 mm
08:00 PM 61.3°F16.3°C 50.3°F10.2°C 67% 4.1 mph SSW6.6 kmh SSW 6.9 mph11.1 kmh 29.43 in996.6 mb 0.00 in0.0 mm 0.00 in0.0 mm 0.05 in1.3 mm
08:10 PM 61.2°F16.2°C 50.1°F10.1°C 67% 1.6 mph SSE2.6 kmh SSE 6.9 mph11.1 kmh 29.44 in997.0 mb 0.00 in0.0 mm 0.00 in0.0 mm 0.05 in1.3 mm
08:20 PM 61.2°F16.2°C 50.1°F10.1°C 67% 3.2 mph SW5.1 kmh SW 5.4 mph8.7 kmh 29.44 in997.0 mb 0.00 in0.0 mm 0.00 in0.0 mm 0.05 in1.3 mm
08:30 PM 61.0°F16.1°C 50.4°F10.2°C 68% 3.2 mph SSW5.1 kmh SSW 6.9 mph11.1 kmh 29.44 in997.0 mb 0.00 in0.0 mm 0.00 in0.0 mm 0.05 in1.3 mm
08:40 PM 60.8°F16.0°C 49.8°F9.9°C 67% 4.2 mph SW6.8 kmh SW 6.0 mph9.7 kmh 29.45 in997.3 mb 0.00 in0.0 mm 0.00 in0.0 mm 0.05 in1.3 mm
08:50 PM 60.4°F15.8°C 49.4°F9.7°C 67% 4.2 mph S6.8 kmh S 6.0 mph9.7 kmh 29.45 in997.3 mb 0.00 in0.0 mm 0.00 in0.0 mm 0.05 in1.3 mm
09:00 PM 60.4°F15.8°C 49.4°F9.7°C 67% 4.1 mph S6.6 kmh S 9.2 mph14.8 kmh 29.45 in997.3 mb 0.00 in0.0 mm 0.00 in0.0 mm 0.05 in1.3 mm
09:10 PM 60.3°F15.7°C 48.9°F9.4°C 66% 4.5 mph SW7.2 kmh SW 8.3 mph13.4 kmh 29.46 in997.6 mb 0.00 in0.0 mm 0.00 in0.0 mm 0.05 in1.3 mm
09:20 PM 60.1°F15.6°C 48.3°F9.1°C 65% 6.0 mph S9.7 kmh S 9.8 mph15.8 kmh 29.46 in997.6 mb 0.00 in0.0 mm 0.00 in0.0 mm 0.05 in1.3 mm
09:30 PM 59.9°F15.5°C 48.1°F8.9°C 65% 2.3 mph SW3.7 kmh SW 6.0 mph9.7 kmh 29.46 in997.6 mb 0.00 in0.0 mm 0.00 in0.0 mm 0.05 in1.3 mm
09:40 PM 59.7°F15.4°C 48.4°F9.1°C 66% 4.1 mph WSW6.6 kmh WSW 6.9 mph11.1 kmh 29.46 in997.6 mb 0.00 in0.0 mm 0.00 in0.0 mm 0.05 in1.3 mm
09:50 PM 59.2°F15.1°C 48.6°F9.2°C 68% 3.5 mph W5.6 kmh W 6.9 mph11.1 kmh 29.45 in997.3 mb 0.00 in0.0 mm 0.00 in0.0 mm 0.05 in1.3 mm
10:00 PM 58.8°F14.9°C 49.1°F9.5°C 70% 5.2 mph WSW8.4 kmh WSW 9.2 mph14.8 kmh 29.45 in997.3 mb 0.00 in0.0 mm 0.00 in0.0 mm 0.05 in1.3 mm
10:10 PM 58.6°F14.8°C 48.9°F9.4°C 70% 2.3 mph W3.7 kmh W 6.9 mph11.1 kmh 29.45 in997.3 mb 0.00 in0.0 mm 0.00 in0.0 mm 0.05 in1.3 mm
10:20 PM 58.3°F14.6°C 48.6°F9.2°C 70% 3.1 mph SW5.0 kmh SW 6.9 mph11.1 kmh 29.46 in997.6 mb 0.00 in0.0 mm 0.00 in0.0 mm 0.05 in1.3 mm
10:30 PM 58.3°F14.6°C 48.9°F9.4°C 71% 3.8 mph S6.1 kmh S 9.2 mph14.8 kmh 29.45 in997.3 mb 0.00 in0.0 mm 0.00 in0.0 mm 0.05 in1.3 mm
10:40 PM 58.5°F14.7°C 49.1°F9.5°C 71% 4.9 mph SSW7.9 kmh SSW 7.6 mph12.2 kmh 29.46 in997.6 mb 0.00 in0.0 mm 0.00 in0.0 mm 0.05 in1.3 mm
10:50 PM 58.5°F14.7°C 49.1°F9.5°C 71% 3.6 mph S5.8 kmh S 5.4 mph8.7 kmh 29.45 in997.3 mb 0.00 in0.0 mm 0.00 in0.0 mm 0.05 in1.3 mm
11:00 PM 58.5°F14.7°C 49.5°F9.7°C 72% 3.9 mph SSE6.3 kmh SSE 6.9 mph11.1 kmh 29.45 in997.3 mb 0.00 in0.0 mm 0.00 in0.0 mm 0.05 in1.3 mm
11:10 PM 58.1°F14.5°C 49.1°F9.5°C 72% 4.2 mph SSW6.8 kmh SSW 9.2 mph14.8 kmh 29.45 in997.3 mb 0.00 in0.0 mm 0.00 in0.0 mm 0.05 in1.3 mm
11:20 PM 58.1°F14.5°C 49.5°F9.7°C 73% 2.7 mph S4.3 kmh S 6.0 mph9.7 kmh 29.46 in997.6 mb 0.00 in0.0 mm 0.00 in0.0 mm 0.05 in1.3 mm
11:30 PM 58.3°F14.6°C 49.7°F9.8°C 73% 6.1 mph S9.8 kmh S 7.6 mph12.2 kmh 29.45 in997.3 mb 0.00 in0.0 mm 0.00 in0.0 mm 0.05 in1.3 mm
11:40 PM 58.3°F14.6°C 49.3°F9.6°C 72% 7.0 mph S11.3 kmh S 11.4 mph18.3 kmh 29.45 in997.3 mb 0.00 in0.0 mm 0.00 in0.0 mm 0.05 in1.3 mm
11:50 PM 57.7°F14.3°C 48.8°F9.3°C 72% 2.6 mph S4.2 kmh S 6.9 mph11.1 kmh 29.45 in997.3 mb 0.00 in0.0 mm 0.00 in0.0 mm 0.05 in1.3 mm